createdAt,value
2023-09-06T00:00:44.724Z,11.80
2023-09-06T00:03:12.548Z,11.86
2023-09-06T00:05:42.875Z,11.94
2023-09-06T00:08:15.985Z,11.70
2023-09-06T00:10:43.753Z,11.60
2023-09-06T00:13:12.696Z,11.48
2023-09-06T00:15:39.191Z,11.44
2023-09-06T00:18:07.595Z,11.30
2023-09-06T00:20:39.265Z,11.26
2023-09-06T00:23:09.906Z,11.13
2023-09-06T00:25:37.134Z,10.88
2023-09-06T00:28:05.334Z,10.96
2023-09-06T00:30:32.372Z,11.15
2023-09-06T00:33:00.154Z,11.07
2023-09-06T00:35:27.906Z,11.16
2023-09-06T00:37:55.569Z,11.06
2023-09-06T00:40:22.944Z,11.08
2023-09-06T00:42:54.599Z,11.03
2023-09-06T00:45:24.411Z,10.95
2023-09-06T00:47:52.321Z,10.96
2023-09-06T00:50:19.488Z,10.99
2023-09-06T00:52:47.674Z,10.81
2023-09-06T00:55:14.542Z,10.89
2023-09-06T00:57:41.923Z,10.72
2023-09-06T01:00:15.380Z,10.59
2023-09-06T01:02:42.015Z,10.54
2023-09-06T01:05:08.805Z,10.48
2023-09-06T01:07:38.635Z,10.60
2023-09-06T01:10:05.931Z,10.54
2023-09-06T01:12:35.712Z,10.58
2023-09-06T01:15:05.686Z,10.53
2023-09-06T01:17:36.061Z,10.50
2023-09-06T01:20:16.506Z,10.50
2023-09-06T01:22:49.065Z,10.46
2023-09-06T01:25:16.397Z,10.46
2023-09-06T01:27:43.009Z,10.55
2023-09-06T01:30:09.798Z,10.48
2023-09-06T01:32:36.581Z,10.55
2023-09-06T01:35:04.542Z,10.50
2023-09-06T01:37:31.197Z,10.48
2023-09-06T01:39:57.662Z,10.49
2023-09-06T01:42:24.161Z,10.45
2023-09-06T01:44:50.688Z,10.47
2023-09-06T01:47:17.157Z,10.45
2023-09-06T01:49:46.246Z,10.48
2023-09-06T01:52:12.823Z,10.43
2023-09-06T01:54:39.340Z,10.40
2023-09-06T01:57:07.530Z,10.30
2023-09-06T01:59:34.249Z,10.24
2023-09-06T02:02:00.742Z,10.15
2023-09-06T02:04:27.257Z,10.07
2023-09-06T02:06:53.727Z,10.01
2023-09-06T02:09:20.617Z,10.03
2023-09-06T02:11:47.263Z,10.11
2023-09-06T02:14:13.711Z,9.97
2023-09-06T02:16:40.297Z,10.13
2023-09-06T02:19:07.694Z,10.30
2023-09-06T02:21:35.291Z,10.33
2023-09-06T02:24:01.769Z,10.26
2023-09-06T02:26:30.673Z,10.29
2023-09-06T02:28:58.109Z,10.30
2023-09-06T02:31:24.693Z,10.33
2023-09-06T02:33:51.268Z,10.22
2023-09-06T02:36:17.736Z,10.29
2023-09-06T02:38:46.385Z,10.17
2023-09-06T02:41:14.401Z,10.06
2023-09-06T02:43:40.867Z,10.15
2023-09-06T02:46:07.371Z,10.09
2023-09-06T02:48:34.866Z,9.96
2023-09-06T02:51:01.468Z,9.97
2023-09-06T02:53:32.331Z,9.96
2023-09-06T02:56:00.197Z,9.94
2023-09-06T02:58:27.373Z,9.88
2023-09-06T03:00:58.805Z,9.86
2023-09-06T03:03:28.146Z,9.87
2023-09-06T03:06:05.796Z,9.72
2023-09-06T03:08:33.191Z,9.75
2023-09-06T03:11:00.016Z,9.67
2023-09-06T03:13:26.539Z,9.63
2023-09-06T03:15:53.130Z,9.68
2023-09-06T03:18:23.845Z,9.61
2023-09-06T03:20:50.678Z,9.60
2023-09-06T03:23:20.770Z,9.08
2023-09-06T03:25:55.289Z,9.64
2023-09-06T03:28:22.986Z,9.57
2023-09-06T03:30:50.021Z,9.59
2023-09-06T03:33:18.122Z,9.57
2023-09-06T03:35:46.455Z,9.65
2023-09-06T03:38:16.766Z,9.44
2023-09-06T03:40:43.713Z,9.61
2023-09-06T03:43:16.056Z,9.55
2023-09-06T03:45:47.091Z,9.56
2023-09-06T03:48:18.867Z,9.47
2023-09-06T03:50:47.303Z,9.38
2023-09-06T03:53:15.836Z,9.37
2023-09-06T03:55:45.248Z,9.32
2023-09-06T03:58:12.111Z,9.31
2023-09-06T04:00:43.156Z,9.31
2023-09-06T04:03:10.093Z,9.31
2023-09-06T04:05:36.694Z,9.19
2023-09-06T04:08:08.316Z,9.28
2023-09-06T04:10:37.932Z,9.10
2023-09-06T04:13:05.888Z,9.19
2023-09-06T04:15:35.914Z,9.21
2023-09-06T04:18:04.602Z,9.01
2023-09-06T04:20:33.346Z,9.06
2023-09-06T04:23:00.561Z,8.94
2023-09-06T04:25:28.704Z,9.06
2023-09-06T04:27:58.299Z,8.99
2023-09-06T04:30:26.408Z,9.00
2023-09-06T04:32:53.023Z,9.03
2023-09-06T04:35:19.855Z,8.98
2023-09-06T04:37:46.429Z,8.84
2023-09-06T04:40:14.034Z,8.94
2023-09-06T04:42:43.832Z,8.91
2023-09-06T04:45:11.591Z,8.93
2023-09-06T04:47:44.884Z,8.95
2023-09-06T04:50:14.575Z,9.05
2023-09-06T04:52:46.206Z,8.97
2023-09-06T04:55:15.874Z,9.05
2023-09-06T04:57:43.105Z,9.05
2023-09-06T05:00:31.807Z,9.08
2023-09-06T05:02:59.188Z,8.95
2023-09-06T05:05:26.793Z,9.09
2023-09-06T05:07:54.343Z,8.48
2023-09-06T05:10:20.909Z,9.04
2023-09-06T05:12:47.536Z,9.09
2023-09-06T05:15:14.610Z,9.14
2023-09-06T05:17:41.878Z,9.33
2023-09-06T05:20:27.846Z,9.51
2023-09-06T05:22:59.226Z,9.52
2023-09-06T05:25:26.153Z,9.50
2023-09-06T05:27:59.247Z,9.72
2023-09-06T05:30:26.769Z,9.79
2023-09-06T05:32:55.541Z,9.81
2023-09-06T05:35:22.825Z,9.84
2023-09-06T05:37:50.296Z,9.96
2023-09-06T05:40:23.501Z,10.04
2023-09-06T05:42:51.162Z,10.08
2023-09-06T05:45:19.617Z,10.29
2023-09-06T05:47:46.550Z,10.40
2023-09-06T05:50:13.109Z,10.46
2023-09-06T05:52:39.636Z,10.48
2023-09-06T05:55:07.884Z,10.59
2023-09-06T05:57:34.340Z,10.62
2023-09-06T06:00:01.297Z,10.77
2023-09-06T06:02:28.595Z,10.83
2023-09-06T06:04:56.351Z,10.87
2023-09-06T06:07:22.961Z,10.99
2023-09-06T06:09:49.865Z,11.05
2023-09-06T06:12:23.207Z,11.23
2023-09-06T06:14:51.610Z,11.44
2023-09-06T06:17:18.907Z,11.52
2023-09-06T06:19:46.461Z,11.57
2023-09-06T06:22:13.135Z,11.62
2023-09-06T06:24:44.487Z,11.62
2023-09-06T06:27:11.295Z,11.79
2023-09-06T06:29:37.999Z,11.88
2023-09-06T06:32:05.178Z,12.00
2023-09-06T06:34:31.833Z,12.11
2023-09-06T06:36:58.320Z,12.16
2023-09-06T06:39:24.784Z,12.41
2023-09-06T06:41:51.847Z,12.42
2023-09-06T06:44:18.364Z,12.53
2023-09-06T06:46:44.980Z,12.57
2023-09-06T06:49:11.507Z,12.97
2023-09-06T06:51:40.381Z,12.93
2023-09-06T06:54:11.310Z,12.96
2023-09-06T06:56:38.512Z,13.09
2023-09-06T06:59:05.405Z,13.26
2023-09-06T07:01:32.456Z,13.38
2023-09-06T07:03:59.644Z,13.50
2023-09-06T07:06:27.101Z,13.65
2023-09-06T07:08:54.586Z,13.82
2023-09-06T07:11:21.508Z,13.93
2023-09-06T07:13:49.780Z,14.11
2023-09-06T07:16:24.189Z,14.24
2023-09-06T07:18:51.440Z,14.25
2023-09-06T07:21:19.637Z,14.50
2023-09-06T07:23:47.174Z,14.44
2023-09-06T07:26:13.745Z,14.80
2023-09-06T07:28:46.345Z,14.82
2023-09-06T07:31:15.335Z,14.87
2023-09-06T07:33:42.043Z,14.93
2023-09-06T07:36:08.496Z,14.98
2023-09-06T07:38:35.360Z,15.09
2023-09-06T07:41:04.150Z,15.29
2023-09-06T07:43:31.180Z,15.40
2023-09-06T07:45:59.058Z,15.51
2023-09-06T07:48:27.055Z,15.64
2023-09-06T07:50:54.121Z,15.64
2023-09-06T07:53:20.676Z,15.79
2023-09-06T07:55:47.604Z,16.04
2023-09-06T07:58:15.698Z,16.36
2023-09-06T08:00:43.021Z,16.53
2023-09-06T08:03:10.691Z,16.67
2023-09-06T08:05:38.310Z,16.90
2023-09-06T08:08:12.192Z,17.04
2023-09-06T08:10:39.297Z,17.10
2023-09-06T08:13:05.868Z,17.48
2023-09-06T08:15:33.254Z,17.29
2023-09-06T08:18:00.557Z,17.73
2023-09-06T08:20:27.098Z,17.60
2023-09-06T08:22:53.605Z,17.69
2023-09-06T08:25:20.695Z,17.86
2023-09-06T08:27:47.196Z,18.00
2023-09-06T08:30:16.396Z,18.07
2023-09-06T08:32:44.935Z,18.06
2023-09-06T08:35:14.373Z,18.29
2023-09-06T08:37:41.419Z,18.45
2023-09-06T08:40:08.819Z,18.44
2023-09-06T08:42:36.184Z,18.67
2023-09-06T08:45:05.056Z,18.72
2023-09-06T08:47:32.330Z,18.88
2023-09-06T08:50:00.489Z,18.95
2023-09-06T08:52:27.493Z,19.19
2023-09-06T08:54:54.073Z,19.34
2023-09-06T08:57:24.325Z,19.43
2023-09-06T08:59:51.070Z,19.51
2023-09-06T09:02:17.867Z,19.77
2023-09-06T09:04:44.575Z,19.70
2023-09-06T09:07:12.281Z,19.98
2023-09-06T09:10:12.494Z,20.05
2023-09-06T09:12:39.765Z,19.83
2023-09-06T09:15:21.235Z,20.14
2023-09-06T09:20:22.462Z,20.11
2023-09-06T09:22:51.425Z,20.22
2023-09-06T09:25:24.375Z,20.35
2023-09-06T09:27:55.544Z,20.53
2023-09-06T09:30:22.960Z,20.41
2023-09-06T09:32:49.708Z,20.56
2023-09-06T09:35:17.068Z,20.71
2023-09-06T09:37:52.144Z,20.89
2023-09-06T09:40:25.886Z,21.12
2023-09-06T09:42:57.749Z,21.32
2023-09-06T09:45:34.848Z,21.24
2023-09-06T09:48:01.616Z,21.40
2023-09-06T09:50:30.850Z,21.51
2023-09-06T09:53:02.672Z,21.75
2023-09-06T09:55:45.802Z,21.81
2023-09-06T09:58:13.078Z,21.90
2023-09-06T10:00:42.727Z,22.02
2023-09-06T10:03:11.044Z,22.12
2023-09-06T10:05:39.546Z,22.00
2023-09-06T10:08:10.660Z,22.01
2023-09-06T10:10:39.243Z,22.26
2023-09-06T10:13:09.679Z,22.12
2023-09-06T10:15:37.641Z,22.21
2023-09-06T10:18:06.353Z,22.59
2023-09-06T10:20:35.877Z,22.39
2023-09-06T10:23:02.738Z,22.42
2023-09-06T10:25:29.638Z,22.90
2023-09-06T10:27:57.539Z,22.97
2023-09-06T10:30:41.612Z,23.18
2023-09-06T10:33:09.540Z,23.28
2023-09-06T10:35:43.109Z,23.40
2023-09-06T10:38:16.838Z,23.58
2023-09-06T10:40:50.127Z,23.87
2023-09-06T10:43:17.819Z,23.68
2023-09-06T10:46:05.711Z,23.99
2023-09-06T10:48:33.594Z,23.81
2023-09-06T10:51:14.219Z,23.99
2023-09-06T10:53:48.544Z,23.73
2023-09-06T10:56:15.089Z,23.70
2023-09-06T10:58:41.536Z,23.74
2023-09-06T11:01:14.232Z,24.03
2023-09-06T11:03:42.711Z,24.07
2023-09-06T11:06:10.608Z,24.01
2023-09-06T11:08:39.909Z,24.04
2023-09-06T11:11:10.112Z,24.30
2023-09-06T11:13:38.646Z,24.57
2023-09-06T11:16:06.642Z,24.57
2023-09-06T11:18:44.752Z,24.56
2023-09-06T11:21:11.379Z,24.71
2023-09-06T11:23:49.078Z,24.73
2023-09-06T11:26:16.150Z,24.47
2023-09-06T11:28:44.509Z,24.24
2023-09-06T11:31:23.793Z,24.57
2023-09-06T11:33:57.330Z,24.78
2023-09-06T11:36:33.237Z,24.94
2023-09-06T11:39:19.692Z,24.85
2023-09-06T11:41:46.579Z,24.88
2023-09-06T11:44:15.929Z,24.72
2023-09-06T11:46:44.783Z,24.77
2023-09-06T11:49:12.589Z,24.74
2023-09-06T11:51:42.409Z,24.97
2023-09-06T11:54:10.858Z,24.59
2023-09-06T11:56:41.319Z,24.54
2023-09-06T11:59:13.749Z,24.85
2023-09-06T12:01:42.041Z,24.83
2023-09-06T12:04:14.574Z,24.95
2023-09-06T12:06:43.382Z,25.08
2023-09-06T12:09:13.512Z,25.06
2023-09-06T12:11:40.792Z,25.04
2023-09-06T12:14:10.596Z,25.30
2023-09-06T12:16:38.252Z,25.13
2023-09-06T12:19:04.834Z,25.37
2023-09-06T12:21:31.540Z,25.36
2023-09-06T12:23:59.263Z,25.61
2023-09-06T12:26:25.918Z,25.38
2023-09-06T12:28:52.409Z,25.18
2023-09-06T12:31:20.069Z,25.29
2023-09-06T12:33:49.309Z,25.67
2023-09-06T12:36:18.779Z,25.53
2023-09-06T12:38:45.742Z,25.53
2023-09-06T12:41:13.566Z,25.62
2023-09-06T12:43:40.122Z,25.47
2023-09-06T12:46:08.091Z,25.46
2023-09-06T12:48:35.994Z,25.58
2023-09-06T12:51:04.250Z,25.50
2023-09-06T12:53:31.286Z,25.57
2023-09-06T12:55:57.769Z,25.39
2023-09-06T12:58:24.286Z,25.46
2023-09-06T13:00:51.209Z,25.32
2023-09-06T13:03:18.364Z,25.32
2023-09-06T13:05:47.145Z,25.51
2023-09-06T13:08:13.963Z,25.63
2023-09-06T13:10:40.776Z,25.52
2023-09-06T13:13:07.435Z,25.60
2023-09-06T13:15:34.089Z,25.45
2023-09-06T13:18:00.700Z,25.45
2023-09-06T13:20:27.217Z,25.42
2023-09-06T13:22:53.761Z,25.54
2023-09-06T13:25:20.987Z,25.50
2023-09-06T13:27:47.902Z,25.61
2023-09-06T13:30:14.625Z,25.66
2023-09-06T13:32:41.539Z,25.75
2023-09-06T13:35:08.566Z,25.68
2023-09-06T13:37:35.064Z,25.75
2023-09-06T13:40:01.695Z,25.68
2023-09-06T13:42:29.333Z,25.74
2023-09-06T13:44:56.439Z,25.61
2023-09-06T13:47:23.972Z,25.89
2023-09-06T13:49:51.698Z,25.97
2023-09-06T13:52:18.957Z,26.10
2023-09-06T13:54:45.809Z,25.92
2023-09-06T13:57:12.391Z,26.02
2023-09-06T13:59:39.822Z,25.89
2023-09-06T14:02:07.206Z,25.82
2023-09-06T14:04:37.769Z,25.88
2023-09-06T14:07:04.809Z,25.86
2023-09-06T14:09:31.368Z,26.12
2023-09-06T14:11:57.811Z,26.12
2023-09-06T14:14:24.983Z,26.04
2023-09-06T14:16:52.074Z,26.20
2023-09-06T14:19:18.595Z,25.99
2023-09-06T14:21:47.156Z,26.10
2023-09-06T14:24:16.162Z,26.02
2023-09-06T14:26:46.050Z,25.84
2023-09-06T14:29:15.643Z,25.90
2023-09-06T14:31:42.300Z,26.03
2023-09-06T14:34:09.031Z,25.81
2023-09-06T14:36:36.033Z,25.82
2023-09-06T14:39:05.762Z,26.03
2023-09-06T14:41:33.877Z,25.98
2023-09-06T14:44:00.538Z,25.85
2023-09-06T14:46:27.079Z,26.05
2023-09-06T14:48:53.748Z,26.19
2023-09-06T14:51:20.406Z,26.09
2023-09-06T14:53:47.128Z,26.05
2023-09-06T14:56:16.195Z,25.98
2023-09-06T14:58:43.066Z,26.18
2023-09-06T15:01:09.856Z,25.82
2023-09-06T15:03:36.635Z,25.96
2023-09-06T15:06:06.750Z,26.14
2023-09-06T15:08:33.527Z,26.17
2023-09-06T15:11:00.254Z,26.10
2023-09-06T15:13:26.822Z,26.26
2023-09-06T15:15:53.688Z,26.26
2023-09-06T15:18:20.293Z,26.26
2023-09-06T15:20:47.523Z,26.52
2023-09-06T15:23:15.204Z,26.58
2023-09-06T15:25:41.980Z,26.25
2023-09-06T15:28:08.535Z,26.07
2023-09-06T15:30:35.787Z,26.06
2023-09-06T15:33:03.342Z,26.15
2023-09-06T15:35:30.191Z,25.99
2023-09-06T15:38:05.862Z,26.17
2023-09-06T15:40:34.266Z,26.11
2023-09-06T15:43:03.228Z,26.07
2023-09-06T15:45:30.047Z,26.04
2023-09-06T15:47:57.022Z,26.01
2023-09-06T15:50:25.213Z,26.01
2023-09-06T15:52:52.874Z,25.91
2023-09-06T15:55:19.461Z,25.97
2023-09-06T15:57:46.086Z,26.01
2023-09-06T16:00:29.945Z,26.22
2023-09-06T16:02:58.813Z,25.95
2023-09-06T16:05:25.766Z,26.02
2023-09-06T16:07:52.878Z,26.02
2023-09-06T16:10:19.393Z,25.98
2023-09-06T16:12:48.992Z,26.10
2023-09-06T16:15:16.920Z,26.00
2023-09-06T16:17:43.763Z,26.03
2023-09-06T16:20:12.270Z,25.98
2023-09-06T16:22:39.202Z,25.97
2023-09-06T16:25:08.559Z,25.91
2023-09-06T16:27:35.235Z,25.39
2023-09-06T16:30:02.310Z,25.66
2023-09-06T16:32:28.981Z,25.73
2023-09-06T16:34:55.461Z,25.48
2023-09-06T16:37:22.131Z,25.56
2023-09-06T16:39:48.701Z,25.39
2023-09-06T16:42:17.221Z,25.12
2023-09-06T16:44:43.799Z,25.01
2023-09-06T16:47:13.126Z,25.00
2023-09-06T16:49:43.626Z,24.98
2023-09-06T16:52:10.567Z,24.88
2023-09-06T16:54:37.540Z,25.00
2023-09-06T16:57:05.189Z,24.95
2023-09-06T16:59:32.374Z,24.93
2023-09-06T17:01:59.301Z,24.97
2023-09-06T17:04:26.016Z,24.97
2023-09-06T17:06:52.500Z,24.67
2023-09-06T17:09:18.970Z,24.65
2023-09-06T17:11:45.577Z,24.27
2023-09-06T17:14:12.648Z,24.13
2023-09-06T17:16:39.834Z,23.91
2023-09-06T17:19:10.792Z,23.86
2023-09-06T17:21:40.334Z,23.57
2023-09-06T17:24:09.372Z,23.53
2023-09-06T17:26:40.889Z,23.33
2023-09-06T17:29:07.460Z,23.12
2023-09-06T17:31:35.349Z,22.89
2023-09-06T17:34:02.296Z,22.81
2023-09-06T17:36:29.524Z,22.65
2023-09-06T17:38:56.211Z,22.53
2023-09-06T17:41:24.443Z,22.33
2023-09-06T17:43:52.015Z,22.21
2023-09-06T17:46:25.181Z,21.97
2023-09-06T17:48:56.131Z,21.70
2023-09-06T17:51:23.776Z,21.64
2023-09-06T17:53:51.704Z,20.88
2023-09-06T17:56:20.826Z,21.04
2023-09-06T17:58:50.545Z,20.89
2023-09-06T18:01:17.696Z,20.71
2023-09-06T18:03:46.583Z,20.48
2023-09-06T18:06:15.871Z,20.08
2023-09-06T18:08:44.110Z,20.00
2023-09-06T18:11:12.604Z,19.78
2023-09-06T18:13:41.253Z,19.80
2023-09-06T18:16:12.120Z,19.60
2023-09-06T18:18:38.974Z,19.42
2023-09-06T18:21:10.139Z,19.26
2023-09-06T18:23:39.892Z,19.27
2023-09-06T18:26:09.126Z,19.28
2023-09-06T18:28:35.933Z,19.03
2023-09-06T18:31:02.951Z,19.02
2023-09-06T18:33:29.462Z,18.95
2023-09-06T18:35:56.541Z,18.83
2023-09-06T18:38:24.301Z,18.62
2023-09-06T18:40:54.494Z,18.50
2023-09-06T18:43:23.513Z,18.43
2023-09-06T18:45:51.197Z,18.18
2023-09-06T18:48:20.286Z,18.12
2023-09-06T18:50:48.127Z,17.59
2023-09-06T18:53:14.954Z,17.80
2023-09-06T18:55:44.358Z,17.56
2023-09-06T18:58:11.993Z,17.56
2023-09-06T19:00:42.242Z,17.60
2023-09-06T19:03:13.190Z,17.59
2023-09-06T19:05:44.129Z,17.50
2023-09-06T19:08:26.255Z,17.43
2023-09-06T19:10:52.864Z,17.18
2023-09-06T19:13:21.082Z,17.13
2023-09-06T19:15:49.163Z,16.92
2023-09-06T19:18:19.027Z,16.75
2023-09-06T19:20:45.645Z,16.48
2023-09-06T19:23:17.747Z,16.44
2023-09-06T19:25:55.391Z,16.41
2023-09-06T19:28:23.375Z,16.37
2023-09-06T19:30:57.698Z,16.37
2023-09-06T19:33:24.905Z,16.22
2023-09-06T19:35:51.526Z,16.04
2023-09-06T19:38:21.424Z,16.13
2023-09-06T19:40:48.875Z,15.94
2023-09-06T19:43:15.302Z,16.07
2023-09-06T19:45:42.045Z,16.07
2023-09-06T19:48:08.554Z,15.91
2023-09-06T19:50:35.206Z,15.97
2023-09-06T19:53:03.063Z,15.64
2023-09-06T19:55:30.533Z,15.89
2023-09-06T19:57:57.057Z,15.79
2023-09-06T20:00:23.645Z,15.63
2023-09-06T20:02:50.191Z,15.48
2023-09-06T20:05:17.092Z,15.52
2023-09-06T20:07:43.697Z,15.79
2023-09-06T20:10:10.366Z,15.87
2023-09-06T20:12:36.820Z,16.07
2023-09-06T20:15:05.040Z,16.05
2023-09-06T20:17:31.825Z,15.89
2023-09-06T20:20:00.264Z,15.90
2023-09-06T20:22:26.768Z,15.83
2023-09-06T20:24:53.517Z,15.72
2023-09-06T20:27:19.935Z,15.65
2023-09-06T20:29:48.149Z,15.73
2023-09-06T20:32:14.776Z,15.54
2023-09-06T20:34:42.945Z,15.66
2023-09-06T20:37:10.810Z,15.66
2023-09-06T20:39:37.335Z,15.54
2023-09-06T20:42:06.282Z,15.63
2023-09-06T20:44:33.223Z,15.61
2023-09-06T20:47:04.684Z,15.57
2023-09-06T20:49:31.774Z,15.44
2023-09-06T20:51:58.300Z,15.46
2023-09-06T20:54:24.821Z,15.52
2023-09-06T20:56:51.811Z,15.49
2023-09-06T20:59:18.281Z,15.49
2023-09-06T21:01:44.915Z,15.43
2023-09-06T21:04:11.591Z,15.44
2023-09-06T21:06:38.532Z,15.44
2023-09-06T21:09:05.821Z,15.48
2023-09-06T21:11:32.960Z,15.38
2023-09-06T21:13:59.499Z,15.64
2023-09-06T21:16:26.120Z,15.56
2023-09-06T21:18:52.624Z,15.37
2023-09-06T21:21:19.117Z,15.48
2023-09-06T21:23:46.119Z,15.47
2023-09-06T21:26:12.616Z,15.58
2023-09-06T21:28:39.050Z,15.72
2023-09-06T21:31:05.607Z,15.80
2023-09-06T21:33:33.194Z,15.52
2023-09-06T21:35:59.852Z,15.42
2023-09-06T21:38:26.365Z,15.43
2023-09-06T21:40:52.920Z,15.25
2023-09-06T21:43:20.061Z,15.11
2023-09-06T21:45:47.604Z,14.83
2023-09-06T21:48:15.000Z,14.68
2023-09-06T21:50:42.558Z,14.74
2023-09-06T21:53:09.630Z,14.70
2023-09-06T21:55:36.347Z,14.51
2023-09-06T21:58:10.356Z,14.64
2023-09-06T22:00:38.368Z,14.39
2023-09-06T22:03:05.247Z,14.22
2023-09-06T22:05:32.017Z,14.33
2023-09-06T22:07:58.580Z,14.31
2023-09-06T22:10:25.221Z,14.36
2023-09-06T22:12:52.070Z,14.31
2023-09-06T22:15:18.703Z,14.25
2023-09-06T22:17:45.586Z,14.10
2023-09-06T22:20:12.465Z,14.02
2023-09-06T22:22:39.383Z,14.00
2023-09-06T22:25:07.006Z,13.94
2023-09-06T22:27:34.230Z,13.93
2023-09-06T22:30:00.848Z,13.83
2023-09-06T22:32:27.404Z,13.78
2023-09-06T22:34:55.196Z,13.64
2023-09-06T22:37:21.747Z,13.63
2023-09-06T22:39:48.285Z,13.72
2023-09-06T22:42:14.910Z,13.76
2023-09-06T22:44:41.453Z,13.60
2023-09-06T22:47:09.046Z,13.57
2023-09-06T22:49:38.414Z,13.51
2023-09-06T22:52:06.973Z,13.40
2023-09-06T22:54:36.873Z,13.33
2023-09-06T22:57:04.408Z,13.10
2023-09-06T22:59:31.231Z,13.21
2023-09-06T23:01:58.873Z,12.69
2023-09-06T23:04:25.746Z,13.16
2023-09-06T23:06:52.895Z,13.11
2023-09-06T23:09:20.183Z,13.06
2023-09-06T23:11:51.132Z,13.08
2023-09-06T23:14:19.626Z,13.02
2023-09-06T23:16:48.727Z,12.82
2023-09-06T23:19:20.953Z,12.75
2023-09-06T23:21:52.272Z,12.67
2023-09-06T23:24:19.919Z,12.76
2023-09-06T23:26:48.897Z,12.58
2023-09-06T23:29:17.456Z,12.69
2023-09-06T23:31:54.384Z,12.76
2023-09-06T23:34:27.882Z,12.69
2023-09-06T23:36:57.191Z,12.60
2023-09-06T23:39:28.583Z,12.52
2023-09-06T23:41:56.369Z,12.58
2023-09-06T23:44:23.344Z,12.39
2023-09-06T23:46:50.670Z,12.47
2023-09-06T23:49:17.664Z,12.35
2023-09-06T23:51:44.208Z,12.28
2023-09-06T23:54:11.913Z,12.23
2023-09-06T23:56:39.632Z,12.21
2023-09-06T23:59:06.141Z,12.17
